createdAt,value
2023-03-21T18:15:19.663Z,16.50
2023-03-21T18:15:31.009Z,16.47
2023-03-21T18:15:39.747Z,16.36
2023-03-21T18:15:55.171Z,16.27
2023-03-21T18:16:04.736Z,16.18
2023-03-21T18:16:14.634Z,16.11
2023-03-21T18:16:24.822Z,16.06
2023-03-21T18:16:32.529Z,16.03
2023-03-21T18:16:42.138Z,15.98
2023-03-21T18:16:52.241Z,15.92
2023-03-21T18:17:02.213Z,15.86
2023-03-21T18:17:12.371Z,15.80
2023-03-21T18:17:22.428Z,15.76
2023-03-21T18:17:32.574Z,15.66
2023-03-21T18:17:42.818Z,15.60
2023-03-21T18:17:52.917Z,15.58
2023-03-21T18:18:03.212Z,15.51
2023-03-21T18:18:14.051Z,15.41
2023-03-21T18:18:23.446Z,15.34
2023-03-21T18:18:33.887Z,15.30
2023-03-21T18:18:44.490Z,15.27
2023-03-21T18:18:53.703Z,15.23
2023-03-21T18:19:04.317Z,15.20
2023-03-21T18:19:14.865Z,15.20
2023-03-21T18:19:24.209Z,15.19
2023-03-21T18:19:34.516Z,15.18
2023-03-21T18:19:46.617Z,15.18
2023-03-21T18:19:54.605Z,15.15
2023-03-21T18:20:09.695Z,15.15
2023-03-21T18:20:15.530Z,15.09
2023-03-21T18:20:24.970Z,15.09
2023-03-21T18:20:51.070Z,15.07
2023-03-21T18:20:58.320Z,15.05
2023-03-21T18:21:04.247Z,15.03
2023-03-21T18:21:14.419Z,15.03
2023-03-21T18:21:26.500Z,15.03
2023-03-21T18:21:36.065Z,15.01
2023-03-21T18:21:45.730Z,15.00
2023-03-21T18:21:55.001Z,14.98
2023-03-21T18:22:05.029Z,15.01
2023-03-21T18:22:15.931Z,15.01
2023-03-21T18:22:25.275Z,14.98
2023-03-21T18:22:35.391Z,14.97
2023-03-21T18:22:45.596Z,14.97
2023-03-21T18:22:56.497Z,14.94
2023-03-21T18:23:05.859Z,14.95
2023-03-21T18:23:15.946Z,14.95
2023-03-21T18:23:25.995Z,14.95
2023-03-21T18:23:36.992Z,14.97
2023-03-21T18:23:46.207Z,14.95
2023-03-21T18:23:56.467Z,14.97
2023-03-21T18:24:07.465Z,15.00
2023-03-21T18:24:16.657Z,15.00
2023-03-21T18:24:27.260Z,15.00
2023-03-21T18:24:38.203Z,15.01
2023-03-21T18:24:47.029Z,15.00
2023-03-21T18:24:57.547Z,15.01
2023-03-21T18:25:07.276Z,15.00
2023-03-21T18:25:18.547Z,15.00
2023-03-21T18:25:27.455Z,14.98
2023-03-21T18:25:38.480Z,14.97
2023-03-21T18:25:47.797Z,14.97
2023-03-21T18:25:57.921Z,14.97
2023-03-21T18:26:08.870Z,14.97
2023-03-21T18:26:18.112Z,14.98
2023-03-21T18:26:28.310Z,14.97
2023-03-21T18:26:38.365Z,14.97
2023-03-21T18:26:48.681Z,14.98
2023-03-21T18:26:58.728Z,14.98
2023-03-21T18:27:08.733Z,14.98
2023-03-21T18:27:19.018Z,15.03
2023-03-21T18:27:32.907Z,15.05
2023-03-21T18:28:02.032Z,15.11
2023-03-21T18:28:19.392Z,15.16
2023-03-21T18:28:26.000Z,15.35
2023-03-21T18:28:35.145Z,15.43
2023-03-21T18:28:45.367Z,15.49
2023-03-21T18:29:53.510Z,15.52
2023-03-21T18:30:44.566Z,15.52
2023-03-21T18:31:18.234Z,15.51
2023-03-21T18:31:25.131Z,15.41
2023-03-21T18:31:30.767Z,15.35
2023-03-21T18:31:41.269Z,15.33
2023-03-21T18:32:05.082Z,15.30
2023-03-21T18:32:11.329Z,15.28
2023-03-21T18:32:17.126Z,15.23
2023-03-21T18:32:26.921Z,15.25
2023-03-21T18:32:37.044Z,15.27
2023-03-21T18:32:47.204Z,15.23
2023-03-21T18:32:58.369Z,15.23
2023-03-21T18:33:07.341Z,15.19
2023-03-21T18:33:17.600Z,15.18
2023-03-21T18:33:28.455Z,15.15
2023-03-21T18:33:37.682Z,15.13
2023-03-21T18:33:47.987Z,15.12
2023-03-21T18:33:58.963Z,15.09
2023-03-21T18:34:08.162Z,15.05
2023-03-21T18:34:18.323Z,15.07
2023-03-21T18:34:29.537Z,15.05
2023-03-21T18:34:38.564Z,15.04
2023-03-21T18:34:48.834Z,15.05
2023-03-21T18:34:59.425Z,15.04
2023-03-21T18:35:09.008Z,15.04
2023-03-21T18:35:18.973Z,15.03
2023-03-21T18:36:00.364Z,15.01
2023-03-21T18:36:28.914Z,15.00
2023-03-21T18:36:35.054Z,15.05
2023-03-21T18:36:44.985Z,15.11
2023-03-21T18:36:55.145Z,15.12
2023-03-21T18:37:05.115Z,15.12
2023-03-21T18:37:15.250Z,15.13
2023-03-21T18:37:25.452Z,15.15
2023-03-21T18:37:35.901Z,15.18
2023-03-21T18:37:46.452Z,15.19
2023-03-21T18:37:55.815Z,15.18
2023-03-21T18:38:05.939Z,15.20
2023-03-21T18:38:16.118Z,15.20
2023-03-21T18:38:26.866Z,15.20
2023-03-21T18:38:36.390Z,15.22
2023-03-21T18:38:46.419Z,15.27
2023-03-21T18:38:56.651Z,15.25
2023-03-21T18:39:06.643Z,15.28
2023-03-21T18:39:16.818Z,15.30
2023-03-21T18:39:27.937Z,15.28
2023-03-21T18:39:37.024Z,15.31
2023-03-21T18:39:47.225Z,15.31
2023-03-21T18:39:57.908Z,15.33
2023-03-21T18:40:07.308Z,15.31
2023-03-21T18:40:18.441Z,15.34
2023-03-21T18:40:27.546Z,15.33
2023-03-21T18:40:38.185Z,15.31
2023-03-21T18:40:47.791Z,15.31
2023-03-21T18:40:59.343Z,15.33
2023-03-21T18:41:08.092Z,15.30
2023-03-21T18:41:18.920Z,15.31
2023-03-21T18:41:28.305Z,15.30
2023-03-21T18:41:38.946Z,15.28
2023-03-21T18:41:49.529Z,15.25
2023-03-21T18:41:59.055Z,15.23
2023-03-21T18:42:17.217Z,15.22
2023-03-21T18:42:23.533Z,15.20
2023-03-21T18:42:31.083Z,15.23
2023-03-21T18:42:39.911Z,15.25
2023-03-21T18:43:45.888Z,15.25
2023-03-21T18:44:14.229Z,15.20
2023-03-21T18:44:24.986Z,15.19
2023-03-21T18:44:31.026Z,15.20
2023-03-21T18:44:41.050Z,15.25
2023-03-21T18:44:51.485Z,15.23
2023-03-21T18:45:01.080Z,15.23
2023-03-21T18:45:11.954Z,15.23
2023-03-21T18:45:21.346Z,15.25
2023-03-21T18:45:31.643Z,15.27
2023-03-21T18:45:41.717Z,15.28
2023-03-21T18:45:51.961Z,15.31
2023-03-21T18:46:01.934Z,15.31
2023-03-21T18:46:12.038Z,15.33
2023-03-21T18:46:22.908Z,15.33
2023-03-21T18:46:32.236Z,15.34
2023-03-21T18:46:42.525Z,15.34
2023-03-21T18:46:53.424Z,15.35
2023-03-21T18:47:02.716Z,15.33
2023-03-21T18:47:13.485Z,15.35
2023-03-21T18:47:22.877Z,15.34
2023-03-21T18:47:32.953Z,15.35
2023-03-21T18:47:43.168Z,15.35
2023-03-21T18:47:53.929Z,15.35
2023-03-21T18:48:03.462Z,15.34
2023-03-21T18:48:13.534Z,15.35
2023-03-21T18:48:24.077Z,15.35
2023-03-21T18:48:35.122Z,15.33
2023-03-21T18:48:43.902Z,15.31
2023-03-21T18:48:55.502Z,15.30
2023-03-21T18:49:33.914Z,15.27
2023-03-21T18:50:29.051Z,15.20
2023-03-21T18:50:34.746Z,15.18
2023-03-21T18:50:45.463Z,15.20
2023-03-21T18:50:54.931Z,15.22
2023-03-21T18:51:05.210Z,15.22
2023-03-21T18:51:15.269Z,15.19
2023-03-21T18:51:25.485Z,15.18
2023-03-21T18:51:35.839Z,15.18
2023-03-21T18:51:45.627Z,15.16
2023-03-21T18:51:55.731Z,15.16
2023-03-21T18:52:06.046Z,15.16
2023-03-21T18:52:16.591Z,15.13
2023-03-21T18:52:26.208Z,15.11
2023-03-21T18:52:36.663Z,15.11
2023-03-21T18:52:46.497Z,15.09
2023-03-21T18:52:57.348Z,15.11
2023-03-21T18:53:31.538Z,15.07
2023-03-21T18:53:39.108Z,15.05
2023-03-21T18:53:49.083Z,15.07
2023-03-21T18:54:00.808Z,15.07
2023-03-21T18:54:09.264Z,15.07
2023-03-21T18:54:17.748Z,15.04
2023-03-21T18:54:28.137Z,15.01
2023-03-21T18:54:38.121Z,14.98
2023-03-21T18:54:48.025Z,14.97
2023-03-21T18:54:58.246Z,14.93
2023-03-21T18:55:08.640Z,14.93
2023-03-21T18:55:18.978Z,14.91
2023-03-21T18:55:44.755Z,14.90
2023-03-21T18:55:57.364Z,14.87
2023-03-21T18:56:03.149Z,14.83
2023-03-21T18:56:46.825Z,14.85
2023-03-21T18:57:34.504Z,14.82
2023-03-21T18:58:23.927Z,14.79
2023-03-21T18:58:29.364Z,14.78
2023-03-21T18:58:39.584Z,14.80
2023-03-21T18:58:50.388Z,14.80
2023-03-21T18:58:59.686Z,14.79
2023-03-21T18:59:09.998Z,14.78
2023-03-21T18:59:21.301Z,14.74
2023-03-21T18:59:30.105Z,14.72
2023-03-21T18:59:40.227Z,14.72
2023-03-21T18:59:50.427Z,14.69
2023-03-21T19:00:00.814Z,14.67
2023-03-21T19:00:11.070Z,14.66
2023-03-21T19:00:20.948Z,14.63
2023-03-21T19:00:31.006Z,14.60
2023-03-21T19:00:42.660Z,14.59
2023-03-21T19:00:51.213Z,14.56
2023-03-21T19:01:04.583Z,14.54
2023-03-21T19:01:11.482Z,14.52
2023-03-21T19:01:21.701Z,14.49
2023-03-21T19:01:31.798Z,14.49
2023-03-21T19:01:42.247Z,14.49
2023-03-21T19:01:51.998Z,14.49
2023-03-21T19:02:02.913Z,14.52
2023-03-21T19:02:12.169Z,14.52
2023-03-21T19:02:22.610Z,14.52
2023-03-21T19:02:32.499Z,14.52
2023-03-21T19:02:46.698Z,14.52
2023-03-21T19:03:04.226Z,14.52
2023-03-21T19:03:36.335Z,14.49
2023-03-21T19:03:53.188Z,14.49
2023-03-21T19:04:29.692Z,14.46
2023-03-21T19:04:38.132Z,14.39
2023-03-21T19:04:45.442Z,14.29
2023-03-21T19:04:53.916Z,14.26
2023-03-21T19:05:04.003Z,14.21
2023-03-21T19:05:15.997Z,14.19
2023-03-21T19:05:24.415Z,14.17
2023-03-21T19:05:34.475Z,14.16
2023-03-21T19:05:44.832Z,14.16
2023-03-21T19:05:54.915Z,14.16
2023-03-21T19:06:05.353Z,14.16
2023-03-21T19:06:17.217Z,14.13
2023-03-21T19:06:25.108Z,14.13
2023-03-21T19:06:35.242Z,14.13
2023-03-21T19:06:45.507Z,14.16
2023-03-21T19:06:55.465Z,14.17
2023-03-21T19:07:05.618Z,14.16
2023-03-21T19:07:17.247Z,14.16
2023-03-21T19:07:25.744Z,14.12
2023-03-21T19:07:36.322Z,14.11
2023-03-21T19:07:47.154Z,14.12
2023-03-21T19:07:56.230Z,14.11
2023-03-21T19:08:06.394Z,14.06
2023-03-21T19:08:16.450Z,14.06
2023-03-21T19:08:27.758Z,14.02
2023-03-21T19:08:37.456Z,13.99
2023-03-21T19:08:46.823Z,13.94
2023-03-21T19:09:10.180Z,13.91
2023-03-21T19:09:15.926Z,13.84
2023-03-21T19:09:31.125Z,13.84
2023-03-21T19:09:58.055Z,13.83
2023-03-21T19:10:17.806Z,13.81
2023-03-21T19:10:23.914Z,13.83
2023-03-21T19:10:29.792Z,13.86
2023-03-21T19:10:40.787Z,13.88
2023-03-21T19:10:49.847Z,13.90
2023-03-21T19:11:03.676Z,13.90
2023-03-21T19:11:11.188Z,13.91
2023-03-21T19:11:20.891Z,13.94
2023-03-21T19:11:31.168Z,13.98
2023-03-21T19:11:40.540Z,13.99
2023-03-21T19:11:50.695Z,14.02
2023-03-21T19:12:01.927Z,14.04
2023-03-21T19:12:10.919Z,14.05
2023-03-21T19:12:21.229Z,14.08
2023-03-21T19:12:31.291Z,14.08
2023-03-21T19:12:41.979Z,14.09
2023-03-21T19:12:51.494Z,14.08
2023-03-21T19:13:01.575Z,14.11
2023-03-21T19:13:11.695Z,14.12
2023-03-21T19:13:21.931Z,14.13
2023-03-21T19:13:32.041Z,14.16
2023-03-21T19:13:43.030Z,14.17
2023-03-21T19:13:52.140Z,14.19
2023-03-21T19:14:02.356Z,14.21
2023-03-21T19:14:13.482Z,14.24
2023-03-21T19:14:22.561Z,14.26
2023-03-21T19:14:33.429Z,14.26
2023-03-21T19:14:42.828Z,14.27
2023-03-21T19:14:52.944Z,14.30
2023-03-21T19:15:03.999Z,14.31
2023-03-21T19:15:13.548Z,14.35
2023-03-21T19:15:23.609Z,14.36
2023-03-21T19:15:33.941Z,14.39
